createdAt,value
2018-02-10T00:01:13.976Z,8.45
2018-02-10T00:03:43.125Z,8.39
2018-02-10T00:06:12.282Z,8.46
2018-02-10T00:08:41.492Z,8.14
2018-02-10T00:11:10.632Z,8.24
2018-02-10T00:13:40.498Z,7.87
2018-02-10T00:16:09.827Z,8.20
2018-02-10T00:18:39.229Z,8.84
2018-02-10T00:21:08.811Z,8.34
2018-02-10T00:23:37.908Z,8.35
2018-02-10T00:26:07.529Z,7.83
2018-02-10T00:28:37.017Z,7.93
2018-02-10T00:31:06.244Z,8.19
2018-02-10T00:33:35.649Z,7.97
2018-02-10T00:36:05.330Z,8.18
2018-02-10T00:38:35.052Z,8.25
2018-02-10T00:41:04.651Z,8.59
2018-02-10T00:43:34.347Z,8.74
2018-02-10T00:46:03.852Z,9.11
2018-02-10T00:48:33.128Z,8.55
2018-02-10T00:51:02.485Z,8.62
2018-02-10T00:53:31.908Z,8.41
2018-02-10T00:56:00.978Z,8.92
2018-02-10T00:58:30.114Z,8.96
2018-02-10T01:00:59.653Z,8.40
2018-02-10T01:03:28.664Z,8.35
2018-02-10T01:05:58.226Z,8.16
2018-02-10T01:08:27.526Z,8.61
2018-02-10T01:10:57.268Z,8.28
2018-02-10T01:13:26.662Z,8.10
2018-02-10T01:15:55.806Z,8.24
2018-02-10T01:18:25.217Z,8.20
2018-02-10T01:20:54.399Z,8.07
2018-02-10T01:23:23.734Z,8.30
2018-02-10T01:25:53.132Z,8.14
2018-02-10T01:28:22.590Z,7.88
2018-02-10T01:30:52.091Z,8.09
2018-02-10T01:33:21.913Z,8.68
2018-02-10T01:35:51.517Z,8.14
2018-02-10T01:38:20.813Z,7.95
2018-02-10T01:40:50.635Z,7.73
2018-02-10T01:43:20.344Z,7.65
2018-02-10T01:45:49.545Z,8.34
2018-02-10T01:48:18.984Z,8.56
2018-02-10T01:50:48.230Z,8.45
2018-02-10T01:53:17.690Z,8.52
2018-02-10T01:55:46.954Z,8.14
2018-02-10T01:58:16.460Z,8.45
2018-02-10T02:00:46.258Z,9.08
2018-02-10T02:03:15.667Z,8.88
2018-02-10T02:05:45.046Z,8.92
2018-02-10T02:08:14.470Z,8.68
2018-02-10T02:10:43.966Z,8.83
2018-02-10T02:13:13.460Z,8.69
2018-02-10T02:15:42.782Z,8.11
2018-02-10T02:18:12.128Z,8.35
2018-02-10T02:20:41.444Z,8.50
2018-02-10T02:23:11.147Z,8.66
2018-02-10T02:25:40.904Z,8.86
2018-02-10T02:28:10.544Z,9.00
2018-02-10T02:30:40.232Z,8.94
2018-02-10T02:33:09.598Z,8.75
2018-02-10T02:35:39.170Z,8.59
2018-02-10T02:38:08.952Z,8.49
2018-02-10T02:40:38.725Z,8.57
2018-02-10T02:43:08.590Z,9.00
2018-02-10T02:45:38.287Z,8.58
2018-02-10T02:48:07.709Z,8.87
2018-02-10T02:50:37.108Z,8.72
2018-02-10T02:53:06.381Z,8.49
2018-02-10T02:55:36.070Z,8.77
2018-02-10T02:58:05.390Z,8.76
2018-02-10T03:00:34.797Z,8.63
2018-02-10T03:03:04.337Z,8.70
2018-02-10T03:05:33.705Z,8.66
2018-02-10T03:08:03.116Z,8.55
2018-02-10T03:10:32.656Z,8.43
2018-02-10T03:13:01.735Z,8.69
2018-02-10T03:15:31.162Z,8.64
2018-02-10T03:18:00.449Z,8.80
2018-02-10T03:20:29.781Z,8.86
2018-02-10T03:22:59.419Z,8.73
2018-02-10T03:25:28.946Z,8.67
2018-02-10T03:27:58.368Z,8.36
2018-02-10T03:30:27.810Z,8.26
2018-02-10T03:32:57.552Z,8.20
2018-02-10T03:35:27.985Z,8.07
2018-02-10T03:37:57.302Z,8.23
2018-02-10T03:40:26.902Z,8.33
2018-02-10T03:42:56.203Z,8.11
2018-02-10T03:45:25.833Z,8.05
2018-02-10T03:47:55.312Z,7.93
2018-02-10T03:50:24.629Z,8.01
2018-02-10T03:52:53.625Z,7.45
2018-02-10T03:55:23.704Z,7.14
2018-02-10T03:57:53.089Z,7.09
2018-02-10T04:00:22.586Z,7.32
2018-02-10T04:02:52.140Z,8.01
2018-02-10T04:05:21.733Z,8.01
2018-02-10T04:07:50.994Z,7.86
2018-02-10T04:10:20.451Z,7.09
2018-02-10T04:12:49.565Z,6.86
2018-02-10T04:15:19.089Z,6.71
2018-02-10T04:17:48.833Z,6.67
2018-02-10T04:20:18.262Z,6.65
2018-02-10T04:22:47.824Z,6.56
2018-02-10T04:25:17.380Z,6.57
2018-02-10T04:27:47.008Z,6.61
2018-02-10T04:30:16.478Z,6.73
2018-02-10T04:32:46.058Z,7.14
2018-02-10T04:35:15.668Z,6.80
2018-02-10T04:37:45.143Z,6.94
2018-02-10T04:40:14.596Z,6.89
2018-02-10T04:42:44.003Z,6.96
2018-02-10T04:45:13.515Z,6.67
2018-02-10T04:47:42.964Z,6.76
2018-02-10T04:50:12.384Z,7.35
2018-02-10T04:52:41.965Z,7.40
2018-02-10T04:55:11.374Z,7.57
2018-02-10T04:57:40.754Z,7.78
2018-02-10T05:00:10.309Z,7.70
2018-02-10T05:02:40.033Z,7.74
2018-02-10T05:05:10.185Z,7.76
2018-02-10T05:07:39.509Z,7.82
2018-02-10T05:10:09.300Z,7.56
2018-02-10T05:12:38.679Z,7.79
2018-02-10T05:15:07.858Z,7.84
2018-02-10T05:17:37.137Z,7.72
2018-02-10T05:20:06.540Z,7.75
2018-02-10T05:22:36.194Z,7.99
2018-02-10T05:25:05.744Z,7.69
2018-02-10T05:27:35.120Z,8.03
2018-02-10T05:30:04.529Z,8.21
2018-02-10T05:32:34.995Z,8.29
2018-02-10T05:35:04.401Z,8.06
2018-02-10T05:37:33.573Z,7.58
2018-02-10T05:40:02.610Z,8.22
2018-02-10T05:42:31.994Z,8.24
2018-02-10T05:45:01.219Z,8.27
2018-02-10T05:47:30.640Z,8.25
2018-02-10T05:50:00.131Z,8.35
2018-02-10T05:52:29.420Z,8.29
2018-02-10T05:54:58.620Z,8.11
2018-02-10T05:57:28.014Z,8.20
2018-02-10T05:59:57.098Z,7.97
2018-02-10T06:02:26.230Z,8.12
2018-02-10T06:04:55.436Z,8.00
2018-02-10T06:07:24.737Z,7.94
2018-02-10T06:09:53.829Z,8.15
2018-02-10T06:12:23.066Z,8.37
2018-02-10T06:14:52.229Z,8.32
2018-02-10T06:17:21.735Z,8.39
2018-02-10T06:19:50.902Z,8.15
2018-02-10T06:22:20.068Z,8.23
2018-02-10T06:24:49.539Z,8.29
2018-02-10T06:27:18.832Z,8.43
2018-02-10T06:29:47.721Z,8.54
2018-02-10T06:32:16.758Z,8.04
2018-02-10T06:34:45.767Z,8.09
2018-02-10T06:37:15.219Z,8.39
2018-02-10T06:39:44.617Z,8.20
2018-02-10T06:42:13.633Z,8.45
2018-02-10T06:44:42.819Z,8.36
2018-02-10T06:47:11.730Z,8.28
2018-02-10T06:49:41.146Z,8.39
2018-02-10T06:52:10.623Z,8.73
2018-02-10T06:54:39.984Z,8.30
2018-02-10T06:57:09.459Z,8.55
2018-02-10T06:59:39.029Z,8.41
2018-02-10T07:02:08.799Z,8.91
2018-02-10T07:04:38.356Z,8.90
2018-02-10T07:07:08.094Z,8.71
2018-02-10T07:09:37.328Z,9.22
2018-02-10T07:12:07.066Z,8.95
2018-02-10T07:14:36.761Z,9.19
2018-02-10T07:17:06.230Z,8.95
2018-02-10T07:19:35.479Z,9.05
2018-02-10T07:22:04.884Z,8.88
2018-02-10T07:24:34.597Z,9.17
2018-02-10T07:27:03.918Z,9.63
2018-02-10T07:29:33.714Z,9.51
2018-02-10T07:32:03.129Z,9.46
2018-02-10T07:34:32.466Z,9.55
2018-02-10T07:37:02.048Z,9.69
2018-02-10T07:39:31.238Z,10.04
2018-02-10T07:42:01.031Z,9.00
2018-02-10T07:44:30.784Z,9.59
2018-02-10T07:47:00.266Z,9.57
2018-02-10T07:49:29.847Z,9.33
2018-02-10T07:51:58.917Z,8.94
2018-02-10T07:54:27.974Z,9.24
2018-02-10T07:56:57.718Z,9.48
2018-02-10T07:59:27.009Z,9.00
2018-02-10T08:01:56.289Z,9.40
2018-02-10T08:04:25.725Z,9.43
2018-02-10T08:06:55.058Z,9.22
2018-02-10T08:09:24.580Z,8.99
2018-02-10T08:11:53.901Z,8.79
2018-02-10T08:14:23.675Z,9.09
2018-02-10T08:16:52.892Z,8.98
2018-02-10T08:19:22.381Z,9.22
2018-02-10T08:21:52.601Z,9.57
2018-02-10T08:24:22.069Z,9.38
2018-02-10T08:26:51.566Z,10.15
2018-02-10T08:29:21.093Z,9.59
2018-02-10T08:31:50.672Z,9.60
2018-02-10T08:34:20.163Z,10.14
2018-02-10T08:36:49.569Z,9.99
2018-02-10T08:39:19.092Z,10.09
2018-02-10T08:41:48.611Z,9.66
2018-02-10T08:44:18.009Z,9.96
2018-02-10T08:46:47.894Z,9.87
2018-02-10T08:49:17.346Z,9.98
2018-02-10T08:51:46.893Z,10.15
2018-02-10T08:54:16.036Z,9.96
2018-02-10T08:56:45.278Z,9.98
2018-02-10T08:59:14.545Z,9.68
2018-02-10T09:01:43.854Z,9.85
2018-02-10T09:04:13.629Z,9.56
2018-02-10T09:06:42.868Z,9.24
2018-02-10T09:09:11.965Z,9.15
2018-02-10T09:11:41.101Z,9.40
2018-02-10T09:14:09.953Z,9.46
2018-02-10T09:16:39.267Z,9.32
2018-02-10T09:19:08.180Z,9.27
2018-02-10T09:21:37.564Z,9.72
2018-02-10T09:24:06.955Z,9.65
2018-02-10T09:26:36.122Z,9.31
2018-02-10T09:29:05.250Z,9.54
2018-02-10T09:31:34.505Z,9.74
2018-02-10T09:34:03.598Z,9.41
2018-02-10T09:36:32.850Z,9.38
2018-02-10T09:39:02.392Z,9.53
2018-02-10T09:41:31.489Z,9.39
2018-02-10T09:44:00.617Z,9.45
2018-02-10T09:46:29.862Z,9.71
2018-02-10T09:48:59.145Z,9.59
2018-02-10T09:51:28.441Z,9.88
2018-02-10T09:53:57.740Z,9.92
2018-02-10T09:56:26.797Z,10.11
2018-02-10T09:58:56.110Z,9.83
2018-02-10T10:01:25.282Z,9.82
2018-02-10T10:03:54.681Z,9.62
2018-02-10T10:06:23.985Z,9.90
2018-02-10T10:08:53.451Z,9.80
2018-02-10T10:11:22.689Z,10.03
2018-02-10T10:13:51.955Z,10.24
2018-02-10T10:16:21.107Z,10.19
2018-02-10T10:18:50.296Z,9.95
2018-02-10T10:21:19.585Z,9.69
2018-02-10T10:23:48.664Z,9.83
2018-02-10T10:26:17.686Z,9.47
2018-02-10T10:28:47.078Z,9.78
2018-02-10T10:31:16.561Z,9.75
2018-02-10T10:33:45.744Z,9.94
2018-02-10T10:36:15.402Z,9.97
2018-02-10T10:38:44.657Z,10.13
2018-02-10T10:41:13.624Z,9.75
2018-02-10T10:43:42.620Z,9.70
2018-02-10T10:46:11.704Z,10.24
2018-02-10T10:48:41.533Z,9.75
2018-02-10T10:51:11.403Z,9.88
2018-02-10T10:53:40.749Z,10.06
2018-02-10T10:56:09.653Z,10.02
2018-02-10T10:58:38.821Z,10.12
2018-02-10T11:01:07.947Z,9.87
2018-02-10T11:03:37.461Z,9.81
2018-02-10T11:06:06.967Z,10.21
2018-02-10T11:08:36.470Z,10.28
2018-02-10T11:11:06.083Z,10.22
2018-02-10T11:13:35.288Z,9.94
2018-02-10T11:16:04.696Z,10.48
2018-02-10T11:18:34.115Z,10.18
2018-02-10T11:21:03.174Z,10.32
2018-02-10T11:23:32.382Z,9.82
2018-02-10T11:26:01.590Z,10.17
2018-02-10T11:28:31.101Z,10.15
2018-02-10T11:31:00.247Z,10.06
2018-02-10T11:33:29.833Z,9.84
2018-02-10T11:35:59.218Z,10.00
2018-02-10T11:38:28.626Z,9.71
2018-02-10T11:40:58.007Z,9.89
2018-02-10T11:43:27.576Z,10.05
2018-02-10T11:45:57.010Z,9.70
2018-02-10T11:48:26.336Z,9.48
2018-02-10T11:50:55.610Z,9.79
2018-02-10T11:53:24.701Z,9.82
2018-02-10T11:55:54.087Z,9.49
2018-02-10T11:58:23.329Z,9.38
2018-02-10T12:00:52.730Z,9.48
2018-02-10T12:03:21.977Z,9.59
2018-02-10T12:05:51.302Z,9.74
2018-02-10T12:08:20.916Z,9.69
2018-02-10T12:10:50.228Z,9.44
2018-02-10T12:13:19.820Z,9.40
2018-02-10T12:15:48.948Z,9.35
2018-02-10T12:18:18.050Z,9.53
2018-02-10T12:20:47.326Z,9.17
2018-02-10T12:23:16.945Z,9.26
2018-02-10T12:25:46.430Z,9.19
2018-02-10T12:28:15.892Z,9.28
2018-02-10T12:30:45.097Z,9.17
2018-02-10T12:33:14.329Z,9.00
2018-02-10T12:35:43.779Z,8.94
2018-02-10T12:38:13.417Z,9.08
2018-02-10T12:40:43.121Z,9.01
2018-02-10T12:43:13.169Z,9.13
2018-02-10T12:45:42.781Z,8.82
2018-02-10T12:48:17.709Z,8.65
2018-02-10T12:50:47.128Z,8.81
2018-02-10T12:53:16.407Z,8.63
2018-02-10T12:55:45.897Z,8.70
2018-02-10T12:58:15.297Z,8.88
2018-02-10T13:00:44.434Z,8.63
2018-02-10T13:03:14.727Z,8.77
2018-02-10T13:05:43.956Z,8.76
2018-02-10T13:08:13.234Z,8.73
2018-02-10T13:10:43.066Z,8.60
2018-02-10T13:13:12.457Z,8.58
2018-02-10T13:15:42.016Z,8.57
2018-02-10T13:18:11.316Z,8.54
2018-02-10T13:20:40.630Z,8.87
2018-02-10T13:23:10.147Z,8.79
2018-02-10T13:25:39.694Z,8.86
2018-02-10T13:28:09.024Z,8.69
2018-02-10T13:30:38.496Z,8.71
2018-02-10T13:33:08.440Z,8.51
2018-02-10T13:35:37.828Z,8.82
2018-02-10T13:38:07.266Z,8.95
2018-02-10T13:40:36.793Z,8.95
2018-02-10T13:43:06.248Z,8.91
2018-02-10T13:45:35.718Z,9.06
2018-02-10T13:48:05.076Z,8.65
2018-02-10T13:50:34.697Z,8.69
2018-02-10T13:53:03.994Z,8.50
2018-02-10T13:55:33.165Z,8.75
2018-02-10T13:58:02.305Z,8.58
2018-02-10T14:00:31.856Z,8.82
2018-02-10T14:03:02.017Z,8.64
2018-02-10T14:05:31.406Z,8.45
2018-02-10T14:08:00.782Z,8.55
2018-02-10T14:10:30.360Z,8.57
2018-02-10T14:13:00.038Z,8.61
2018-02-10T14:15:29.409Z,8.57
2018-02-10T14:17:58.825Z,8.50
2018-02-10T14:20:28.096Z,8.78
2018-02-10T14:22:57.633Z,8.82
2018-02-10T14:25:27.821Z,8.67
2018-02-10T14:27:57.528Z,8.82
2018-02-10T14:30:27.949Z,8.85
2018-02-10T14:32:57.468Z,8.79
2018-02-10T14:35:28.638Z,8.90
2018-02-10T14:37:58.034Z,8.70
2018-02-10T14:40:27.614Z,8.56
2018-02-10T14:42:57.104Z,8.68
2018-02-10T14:45:26.943Z,8.62
2018-02-10T14:47:56.423Z,8.90
2018-02-10T14:50:25.567Z,8.47
2018-02-10T14:52:55.052Z,8.25
2018-02-10T14:55:24.744Z,8.21
2018-02-10T14:57:53.873Z,8.55
2018-02-10T15:00:23.454Z,8.50
2018-02-10T15:02:52.967Z,8.44
2018-02-10T15:05:22.873Z,8.43
2018-02-10T15:07:52.112Z,8.74
2018-02-10T15:10:21.568Z,8.71
2018-02-10T15:12:50.868Z,8.61
2018-02-10T15:15:20.249Z,8.57
2018-02-10T15:17:50.186Z,8.57
2018-02-10T15:20:20.006Z,8.70
2018-02-10T15:22:49.632Z,8.57
2018-02-10T15:25:19.122Z,8.43
2018-02-10T15:27:48.523Z,8.40
2018-02-10T15:30:29.188Z,8.62
2018-02-10T15:33:09.206Z,8.44
2018-02-10T15:35:38.739Z,8.30
2018-02-10T15:38:08.050Z,8.56
2018-02-10T15:40:37.873Z,8.60
2018-02-10T15:43:07.482Z,8.45
2018-02-10T15:45:36.837Z,8.44
2018-02-10T15:48:06.248Z,8.31
2018-02-10T15:50:35.575Z,8.21
2018-02-10T15:53:04.855Z,8.21
2018-02-10T15:55:34.338Z,8.18
2018-02-10T15:58:04.111Z,8.27
2018-02-10T16:00:33.454Z,8.24
2018-02-10T16:03:02.844Z,8.17
2018-02-10T16:05:32.281Z,8.10
2018-02-10T16:08:01.895Z,7.95
2018-02-10T16:10:31.140Z,7.93
2018-02-10T16:13:00.566Z,8.02
2018-02-10T16:15:30.068Z,7.97
2018-02-10T16:17:59.322Z,8.01
2018-02-10T16:20:28.721Z,8.02
2018-02-10T16:22:58.335Z,8.01
2018-02-10T16:25:28.174Z,8.01
2018-02-10T16:27:57.738Z,7.98
2018-02-10T16:30:27.073Z,7.95
2018-02-10T16:32:56.262Z,8.03
2018-02-10T16:35:25.759Z,7.95
2018-02-10T16:37:55.468Z,8.05
2018-02-10T16:40:25.014Z,8.01
2018-02-10T16:42:54.182Z,7.96
2018-02-10T16:45:23.369Z,8.10
2018-02-10T16:47:52.901Z,7.97
2018-02-10T16:50:22.619Z,8.17
2018-02-10T16:52:51.922Z,8.17
2018-02-10T16:55:21.424Z,8.10
2018-02-10T16:57:50.762Z,7.95
2018-02-10T17:00:20.177Z,8.13
2018-02-10T17:02:49.379Z,8.21
2018-02-10T17:05:18.664Z,8.24
2018-02-10T17:07:48.061Z,8.23
2018-02-10T17:10:17.542Z,8.17
2018-02-10T17:12:46.974Z,7.99
2018-02-10T17:15:16.069Z,8.11
2018-02-10T17:17:45.296Z,8.09
2018-02-10T17:20:15.120Z,8.19
2018-02-10T17:22:44.445Z,8.08
2018-02-10T17:25:13.910Z,8.08
2018-02-10T17:27:43.309Z,8.06
2018-02-10T17:30:13.028Z,8.27
2018-02-10T17:32:42.552Z,8.16
2018-02-10T17:35:12.154Z,8.04
2018-02-10T17:37:41.677Z,8.03
2018-02-10T17:40:11.007Z,8.01
2018-02-10T17:42:40.956Z,8.04
2018-02-10T17:45:10.676Z,7.93
2018-02-10T17:47:40.393Z,7.99
2018-02-10T17:50:10.242Z,7.95
2018-02-10T17:52:39.843Z,7.84
2018-02-10T17:55:09.624Z,7.94
2018-02-10T17:57:39.184Z,7.86
2018-02-10T18:00:08.930Z,7.87
2018-02-10T18:02:38.338Z,7.84
2018-02-10T18:05:07.878Z,7.91
2018-02-10T18:07:37.408Z,7.90
2018-02-10T18:10:06.785Z,7.96
2018-02-10T18:12:36.585Z,8.00
2018-02-10T18:15:06.022Z,7.92
2018-02-10T18:17:35.665Z,7.97
2018-02-10T18:20:04.954Z,8.13
2018-02-10T18:22:34.396Z,8.02
2018-02-10T18:25:04.225Z,7.92
2018-02-10T18:27:34.010Z,7.89
2018-02-10T18:30:03.861Z,7.94
2018-02-10T18:32:33.296Z,7.86
2018-02-10T18:35:02.978Z,7.89
2018-02-10T18:37:32.334Z,7.99
2018-02-10T18:40:01.812Z,8.06
2018-02-10T18:42:31.345Z,8.00
2018-02-10T18:45:00.846Z,8.00
2018-02-10T18:47:30.261Z,8.09
2018-02-10T18:49:59.553Z,8.19
2018-02-10T18:52:29.164Z,8.22
2018-02-10T18:54:58.534Z,8.10
2018-02-10T18:57:27.984Z,8.08
2018-02-10T18:59:57.801Z,8.08
2018-02-10T19:02:27.210Z,8.04
2018-02-10T19:04:56.618Z,8.30
2018-02-10T19:07:26.008Z,8.16
2018-02-10T19:09:55.498Z,8.22
2018-02-10T19:12:25.138Z,8.15
2018-02-10T19:14:54.812Z,8.18
2018-02-10T19:17:24.242Z,8.23
2018-02-10T19:19:53.472Z,8.19
2018-02-10T19:22:22.790Z,8.07
2018-02-10T19:24:52.064Z,8.32
2018-02-10T19:27:21.536Z,8.16
2018-02-10T19:29:50.916Z,8.38
2018-02-10T19:32:20.505Z,8.26
2018-02-10T19:34:49.932Z,8.18
2018-02-10T19:37:19.241Z,8.18
2018-02-10T19:39:48.555Z,8.25
2018-02-10T19:42:17.967Z,8.14
2018-02-10T19:44:47.680Z,8.10
2018-02-10T19:47:16.746Z,8.18
2018-02-10T19:49:46.156Z,8.13
2018-02-10T19:52:15.726Z,8.20
2018-02-10T19:54:44.897Z,8.27
2018-02-10T19:57:14.489Z,8.30
2018-02-10T19:59:44.369Z,8.17
2018-02-10T20:02:13.880Z,7.98
2018-02-10T20:04:43.695Z,8.07
2018-02-10T20:07:13.721Z,8.06
2018-02-10T20:09:43.281Z,7.98
2018-02-10T20:12:12.740Z,8.01
2018-02-10T20:14:42.234Z,7.92
2018-02-10T20:17:11.699Z,7.95
2018-02-10T20:19:41.056Z,7.78
2018-02-10T20:22:10.933Z,7.87
2018-02-10T20:24:40.246Z,7.86
2018-02-10T20:27:09.282Z,7.72
2018-02-10T20:29:38.470Z,7.76
2018-02-10T20:32:07.506Z,7.83
2018-02-10T20:34:36.927Z,7.66
2018-02-10T20:37:06.205Z,7.70
2018-02-10T20:39:35.540Z,7.63
2018-02-10T20:42:04.739Z,7.70
2018-02-10T20:44:34.126Z,7.67
2018-02-10T20:47:03.405Z,7.76
2018-02-10T20:49:32.874Z,7.60
2018-02-10T20:52:02.278Z,7.70
2018-02-10T20:54:31.482Z,7.62
2018-02-10T20:57:00.891Z,7.66
2018-02-10T20:59:30.461Z,7.63
2018-02-10T21:01:59.562Z,7.67
2018-02-10T21:04:28.869Z,7.69
2018-02-10T21:06:58.046Z,7.65
2018-02-10T21:09:27.318Z,7.59
2018-02-10T21:11:57.181Z,7.58
2018-02-10T21:14:26.870Z,7.59
2018-02-10T21:16:56.097Z,7.53
2018-02-10T21:19:25.355Z,7.39
2018-02-10T21:21:54.685Z,7.54
2018-02-10T21:24:23.873Z,7.53
2018-02-10T21:26:53.165Z,7.39
2018-02-10T21:29:22.549Z,7.37
2018-02-10T21:31:51.995Z,7.38
2018-02-10T21:34:21.899Z,7.32
2018-02-10T21:36:51.018Z,7.41
2018-02-10T21:39:20.358Z,7.38
2018-02-10T21:41:49.465Z,7.34
2018-02-10T21:44:18.792Z,7.38
2018-02-10T21:46:48.164Z,7.30
2018-02-10T21:49:17.365Z,7.27
2018-02-10T21:51:46.786Z,7.27
2018-02-10T21:54:16.221Z,7.26
2018-02-10T21:56:45.830Z,7.23
2018-02-10T21:59:15.301Z,7.28
2018-02-10T22:01:44.285Z,7.38
2018-02-10T22:04:14.103Z,7.18
2018-02-10T22:06:43.437Z,7.17
2018-02-10T22:09:13.074Z,7.18
2018-02-10T22:11:42.553Z,7.22
2018-02-10T22:14:11.756Z,7.14
2018-02-10T22:16:40.946Z,7.13
2018-02-10T22:19:10.311Z,7.20
2018-02-10T22:21:39.546Z,7.09
2018-02-10T22:24:08.615Z,7.12
2018-02-10T22:26:37.973Z,7.13
2018-02-10T22:29:07.115Z,7.07
2018-02-10T22:31:36.387Z,6.99
2018-02-10T22:34:05.506Z,6.98
2018-02-10T22:36:34.856Z,7.03
2018-02-10T22:39:04.200Z,6.96
2018-02-10T22:41:33.301Z,7.08
2018-02-10T22:44:02.728Z,7.05
2018-02-10T22:46:31.898Z,7.09
2018-02-10T22:49:01.041Z,7.09
2018-02-10T22:51:30.297Z,6.99
2018-02-10T22:53:59.785Z,7.10
2018-02-10T22:56:30.021Z,7.09
2018-02-10T22:58:59.121Z,7.08
2018-02-10T23:01:28.134Z,7.01
2018-02-10T23:03:57.449Z,7.11
2018-02-10T23:06:27.127Z,7.09
2018-02-10T23:08:56.444Z,7.09
2018-02-10T23:11:25.664Z,7.03
2018-02-10T23:13:54.477Z,6.94
2018-02-10T23:16:23.692Z,7.08
2018-02-10T23:18:52.588Z,6.90
2018-02-10T23:21:21.530Z,6.87
2018-02-10T23:23:50.712Z,6.93
2018-02-10T23:26:20.304Z,7.03
2018-02-10T23:28:49.522Z,6.97
2018-02-10T23:31:18.670Z,6.95
2018-02-10T23:33:48.005Z,6.93
2018-02-10T23:36:17.092Z,6.98
2018-02-10T23:38:46.201Z,7.00
2018-02-10T23:41:15.333Z,6.92
2018-02-10T23:43:44.388Z,7.06
2018-02-10T23:46:13.635Z,7.05
2018-02-10T23:48:42.941Z,6.99
2018-02-10T23:51:12.443Z,7.12
2018-02-10T23:53:41.482Z,7.25
2018-02-10T23:56:10.599Z,7.28
2018-02-10T23:58:39.482Z,7.17
